CA-0074 weather

CLOSED Campbellford Airport
Campbellford, Ontario, Canada

Public forecast

Using degrees Celsius for public forecast. Weather courtesy of forecast.io.

Closest aviation weather report (METAR) to Campbellford Airport

Closest report is CFB Trenton, 19.8 nm (36.6 km) SSE. Retrieved 2020/05/29 07:00 UTC (54 minutes ago):

CYTR 290700Z 19004KT 8SM FEW003 BKN030 17/16 A2985 RMK SF2SC3 SLP107

Closest aviation forecast (TAF) to Campbellford Airport

Closest forecast is CFB Trenton, 19.8 nm (36.6 km) SSE. Retrieved 2020/05/29 06:34 UTC (1 hour ago):

TAF CYTR 290532Z 2906/3006 20007KT 1/4SM FG VV003 TEMPO 2906/2910 4SM BR SCT003 OVC010 FM291000 22008KT P6SM SCT006 BKN025 OVC150 TEMPO 2910/2912 5SM BR BKN006 OVC025 FM291200 24008KT P6SM FEW006 SCT025 BKN150 BECMG 2913/2915 24010G20KT FM291500 23010G20KT P6SM FEW020 SCT040 BKN080 TEMPO 2919/2922 5SM -SHRA BR BKN020 OVC040 FM292200 23012KT P6SM -SHRA SCT015 OVC040 PROB30 2922/3001 VRB15G25KT 2SM TSRA BR BKN015 OVC040CB FM300100 28012KT P6SM BKN012 OVC040 RMK NXT FCST BY 291200Z